createdAt,value
2023-12-30T00:00:52.141Z,94.87
2023-12-30T00:03:36.753Z,94.53
2023-12-30T00:06:05.369Z,94.42
2023-12-30T00:08:33.693Z,94.36
2023-12-30T00:11:01.889Z,94.45
2023-12-30T00:13:30.149Z,94.37
2023-12-30T00:15:58.467Z,94.23
2023-12-30T00:18:26.821Z,94.07
2023-12-30T00:20:55.173Z,94.03
2023-12-30T00:23:24.012Z,94.39
2023-12-30T00:25:54.920Z,95.25
2023-12-30T00:28:23.202Z,95.45
2023-12-30T00:30:51.710Z,95.50
2023-12-30T00:33:20.034Z,95.51
2023-12-30T00:35:48.418Z,96.43
2023-12-30T00:38:23.832Z,96.40
2023-12-30T00:40:52.894Z,96.44
2023-12-30T00:43:21.112Z,96.20
2023-12-30T00:45:49.755Z,97.15
2023-12-30T00:48:18.186Z,98.44
2023-12-30T00:50:47.362Z,98.70
2023-12-30T00:53:16.388Z,98.19
2023-12-30T00:55:44.607Z,97.57
2023-12-30T00:58:12.869Z,97.20
2023-12-30T01:00:41.191Z,97.07
2023-12-30T01:03:09.895Z,96.74
2023-12-30T01:05:38.490Z,97.05
2023-12-30T01:08:07.314Z,97.33
2023-12-30T01:10:35.500Z,97.08
2023-12-30T01:13:05.184Z,96.97
2023-12-30T01:15:34.686Z,96.36
2023-12-30T01:18:04.321Z,95.90
2023-12-30T01:20:32.627Z,95.94
2023-12-30T01:23:01.161Z,96.42
2023-12-30T01:25:29.790Z,96.26
2023-12-30T01:27:58.107Z,96.49
2023-12-30T01:30:26.677Z,96.75
2023-12-30T01:32:55.809Z,96.81
2023-12-30T01:35:24.257Z,96.69
2023-12-30T01:37:52.606Z,96.38
2023-12-30T01:40:20.984Z,96.27
2023-12-30T01:42:49.377Z,96.07
2023-12-30T01:45:17.641Z,95.87
2023-12-30T01:47:46.950Z,95.88
2023-12-30T01:50:16.794Z,96.36
2023-12-30T01:52:47.607Z,96.48
2023-12-30T01:55:17.549Z,95.97
2023-12-30T01:57:47.482Z,95.89
2023-12-30T02:00:21.922Z,95.82
2023-12-30T02:02:51.402Z,96.29
2023-12-30T02:05:19.839Z,96.44
2023-12-30T02:07:48.962Z,96.21
2023-12-30T02:10:17.472Z,96.21
2023-12-30T02:12:45.831Z,95.72
2023-12-30T02:15:26.196Z,95.90
2023-12-30T02:17:57.825Z,95.61
2023-12-30T02:20:26.547Z,95.51
2023-12-30T02:22:54.891Z,95.60
2023-12-30T02:25:23.472Z,95.73
2023-12-30T02:27:51.734Z,95.59
2023-12-30T02:30:20.108Z,95.78
2023-12-30T02:32:48.461Z,95.76
2023-12-30T02:35:16.930Z,95.12
2023-12-30T02:37:46.491Z,95.18
2023-12-30T02:40:15.411Z,95.11
2023-12-30T02:42:43.739Z,94.89
2023-12-30T02:45:13.031Z,95.10
2023-12-30T02:47:41.262Z,95.34
2023-12-30T02:50:10.210Z,95.43
2023-12-30T02:52:38.380Z,95.31
2023-12-30T02:55:07.613Z,95.71
2023-12-30T02:57:48.178Z,95.40
2023-12-30T03:00:19.455Z,94.80
2023-12-30T03:02:48.759Z,94.51
2023-12-30T03:05:17.268Z,94.43
2023-12-30T03:07:45.712Z,94.57
2023-12-30T03:10:14.103Z,94.26
2023-12-30T03:12:42.657Z,94.25
2023-12-30T03:15:11.107Z,94.00
2023-12-30T03:17:39.476Z,94.28
2023-12-30T03:20:11.526Z,94.58
2023-12-30T03:22:40.077Z,95.04
2023-12-30T03:25:08.862Z,94.34
2023-12-30T03:27:38.228Z,93.80
2023-12-30T03:30:07.498Z,94.06
2023-12-30T03:32:35.750Z,93.98
2023-12-30T03:35:04.850Z,93.65
2023-12-30T03:37:33.331Z,93.83
2023-12-30T03:40:01.764Z,93.90
2023-12-30T03:42:30.333Z,94.31
2023-12-30T03:44:58.984Z,94.70
2023-12-30T03:47:27.217Z,94.54
2023-12-30T03:49:55.436Z,94.38
2023-12-30T03:52:23.746Z,94.95
2023-12-30T03:54:53.723Z,95.25
2023-12-30T03:57:23.666Z,94.44
2023-12-30T03:59:51.889Z,94.41
2023-12-30T04:02:22.843Z,94.32
2023-12-30T04:04:51.485Z,94.29
2023-12-30T04:07:19.703Z,94.61
2023-12-30T04:09:48.383Z,95.12
2023-12-30T04:12:16.800Z,94.93
2023-12-30T04:14:45.420Z,95.35
2023-12-30T04:17:13.940Z,95.30
2023-12-30T04:19:42.165Z,95.19
2023-12-30T04:22:10.423Z,95.31
2023-12-30T04:24:38.600Z,95.78
2023-12-30T04:27:06.925Z,96.47
2023-12-30T04:29:35.143Z,97.51
2023-12-30T04:32:03.472Z,97.94
2023-12-30T04:34:31.741Z,98.79
2023-12-30T04:37:00.020Z,98.09
2023-12-30T04:39:28.226Z,98.01
2023-12-30T04:42:00.756Z,97.83
2023-12-30T04:44:29.184Z,97.66
2023-12-30T04:46:58.006Z,97.27
2023-12-30T04:49:26.266Z,97.18
2023-12-30T04:51:54.874Z,97.45
2023-12-30T04:54:24.272Z,96.91
2023-12-30T04:56:53.430Z,96.95
2023-12-30T04:59:22.012Z,96.76
2023-12-30T05:01:50.274Z,96.27
2023-12-30T05:04:18.574Z,96.03
2023-12-30T05:06:46.876Z,96.09
2023-12-30T05:09:16.043Z,96.19
2023-12-30T05:11:45.939Z,95.81
2023-12-30T05:14:14.261Z,96.36
2023-12-30T05:16:45.530Z,96.49
2023-12-30T05:19:14.519Z,96.39
2023-12-30T05:21:43.224Z,96.24
2023-12-30T05:24:11.745Z,96.13
2023-12-30T05:26:39.961Z,96.32
2023-12-30T05:29:08.486Z,96.44
2023-12-30T05:31:37.145Z,96.53
2023-12-30T05:34:05.884Z,96.43
2023-12-30T05:36:34.150Z,96.10
2023-12-30T05:39:02.273Z,96.28
2023-12-30T05:41:30.893Z,96.08
2023-12-30T05:43:59.224Z,95.42
2023-12-30T05:46:28.162Z,95.07
2023-12-30T05:48:56.605Z,95.40
2023-12-30T05:51:25.178Z,95.29
2023-12-30T05:53:53.693Z,95.59
2023-12-30T05:56:23.736Z,96.09
2023-12-30T05:58:55.312Z,96.16
2023-12-30T06:01:23.604Z,96.10
2023-12-30T06:03:51.980Z,96.56
2023-12-30T06:06:21.476Z,97.22
2023-12-30T06:08:49.771Z,97.04
2023-12-30T06:11:18.970Z,96.78
2023-12-30T06:13:47.634Z,97.10
2023-12-30T06:16:16.072Z,97.21
2023-12-30T06:18:44.472Z,97.35
2023-12-30T06:21:12.848Z,97.87
2023-12-30T06:23:41.074Z,98.05
2023-12-30T06:26:09.288Z,98.43
2023-12-30T06:28:37.778Z,98.13
2023-12-30T06:31:06.114Z,98.17
2023-12-30T06:33:34.701Z,98.26
2023-12-30T06:36:03.080Z,98.41
2023-12-30T06:38:31.301Z,98.25
2023-12-30T06:40:59.614Z,97.90
2023-12-30T06:43:27.770Z,97.97
2023-12-30T06:45:56.130Z,98.09
2023-12-30T06:48:25.207Z,98.36
2023-12-30T06:50:55.626Z,98.61
2023-12-30T06:53:24.332Z,99.01
2023-12-30T06:55:52.600Z,98.51
2023-12-30T06:58:20.912Z,98.31
2023-12-30T07:00:49.238Z,98.20
2023-12-30T07:03:17.623Z,97.98
2023-12-30T07:05:45.965Z,97.65
2023-12-30T07:08:14.362Z,97.51
2023-12-30T07:10:42.635Z,96.84
2023-12-30T07:13:10.934Z,96.96
2023-12-30T07:15:39.216Z,97.08
2023-12-30T07:18:08.242Z,97.08
2023-12-30T07:20:37.064Z,97.51
2023-12-30T07:23:07.054Z,97.51
2023-12-30T07:25:35.570Z,97.45
2023-12-30T07:28:04.416Z,97.62
2023-12-30T07:30:32.591Z,97.53
2023-12-30T07:33:01.117Z,97.28
2023-12-30T07:35:29.493Z,97.06
2023-12-30T07:37:58.045Z,96.80
2023-12-30T07:40:26.493Z,97.12
2023-12-30T07:42:54.899Z,97.23
2023-12-30T07:45:23.283Z,97.28
2023-12-30T07:47:52.050Z,97.53
2023-12-30T07:50:20.424Z,97.59
2023-12-30T07:52:49.487Z,97.66
2023-12-30T07:55:18.312Z,97.48
2023-12-30T07:57:46.488Z,97.32
2023-12-30T08:00:15.747Z,97.09
2023-12-30T08:02:45.862Z,96.95
2023-12-30T08:05:14.408Z,96.68
2023-12-30T08:07:42.823Z,96.27
2023-12-30T08:10:12.786Z,96.24
2023-12-30T08:12:41.139Z,96.30
2023-12-30T08:15:12.367Z,96.19
2023-12-30T08:17:41.178Z,96.13
2023-12-30T08:20:10.638Z,95.78
2023-12-30T08:22:39.028Z,95.67
2023-12-30T08:25:08.952Z,95.57
2023-12-30T08:27:37.870Z,95.17
2023-12-30T08:30:06.421Z,95.48
2023-12-30T08:32:34.746Z,95.25
2023-12-30T08:35:04.611Z,94.98
2023-12-30T08:37:32.916Z,95.21
2023-12-30T08:40:01.555Z,95.08
2023-12-30T08:42:35.604Z,95.07
2023-12-30T08:45:07.582Z,94.59
2023-12-30T08:47:36.276Z,95.01
2023-12-30T08:50:05.510Z,94.72
2023-12-30T08:52:33.895Z,94.00
2023-12-30T08:55:02.377Z,93.79
2023-12-30T08:57:30.772Z,92.88
2023-12-30T08:59:59.001Z,91.70
2023-12-30T09:02:27.213Z,90.69
2023-12-30T09:04:57.909Z,91.27
2023-12-30T09:07:26.231Z,90.76
2023-12-30T09:09:54.615Z,90.17
2023-12-30T09:12:22.908Z,89.60
2023-12-30T09:14:51.540Z,89.54
2023-12-30T09:17:19.774Z,88.84
2023-12-30T09:19:48.188Z,86.52
2023-12-30T09:22:17.611Z,85.75
2023-12-30T09:24:47.218Z,85.40
2023-12-30T09:27:15.841Z,84.32
2023-12-30T09:29:44.167Z,83.60
2023-12-30T09:32:12.488Z,84.08
2023-12-30T09:34:44.152Z,84.96
2023-12-30T09:37:13.611Z,84.76
2023-12-30T09:39:43.505Z,84.10
2023-12-30T09:42:11.786Z,83.73
2023-12-30T09:44:41.266Z,83.43
2023-12-30T09:47:12.494Z,84.15
2023-12-30T09:49:42.128Z,84.40
2023-12-30T09:52:10.618Z,84.51
2023-12-30T09:54:48.299Z,84.54
2023-12-30T09:57:18.276Z,84.30
2023-12-30T09:59:48.523Z,84.86
2023-12-30T10:02:16.922Z,84.30
2023-12-30T10:04:46.335Z,84.54
2023-12-30T10:07:15.091Z,83.65
2023-12-30T10:09:44.039Z,83.41
2023-12-30T10:12:12.519Z,83.52
2023-12-30T10:14:40.730Z,83.26
2023-12-30T10:17:09.352Z,83.15
2023-12-30T10:19:37.741Z,82.79
2023-12-30T10:22:06.116Z,82.85
2023-12-30T10:24:34.412Z,82.73
2023-12-30T10:27:06.050Z,81.57
2023-12-30T10:29:46.394Z,82.12
2023-12-30T10:32:22.493Z,81.46
2023-12-30T10:34:51.324Z,81.97
2023-12-30T10:37:24.416Z,80.96
2023-12-30T10:39:56.179Z,79.96
2023-12-30T10:42:24.636Z,78.81
2023-12-30T10:44:53.087Z,77.90
2023-12-30T10:47:23.008Z,76.75
2023-12-30T10:49:59.015Z,76.32
2023-12-30T10:52:28.899Z,76.26
2023-12-30T10:55:10.197Z,76.64
2023-12-30T10:57:42.087Z,75.83
2023-12-30T11:00:11.068Z,74.02
2023-12-30T11:02:40.237Z,73.31
2023-12-30T11:05:16.796Z,72.21
2023-12-30T11:07:45.736Z,73.15
2023-12-30T11:10:23.991Z,72.62
2023-12-30T11:12:54.648Z,71.63
2023-12-30T11:15:31.335Z,71.85
2023-12-30T11:18:00.927Z,71.39
2023-12-30T11:20:33.472Z,70.67
2023-12-30T11:23:04.549Z,70.80
2023-12-30T11:25:47.511Z,69.60
2023-12-30T11:28:23.515Z,69.42
2023-12-30T11:31:02.361Z,68.59
2023-12-30T11:33:30.905Z,68.87
2023-12-30T11:36:01.784Z,67.59
2023-12-30T11:38:32.738Z,66.47
2023-12-30T11:41:02.685Z,65.56
2023-12-30T11:43:31.596Z,64.44
2023-12-30T11:46:01.396Z,63.99
2023-12-30T11:48:30.976Z,62.07
2023-12-30T11:50:59.317Z,61.95
2023-12-30T11:53:27.937Z,58.44
2023-12-30T11:55:56.588Z,57.20
2023-12-30T11:58:24.947Z,56.22
2023-12-30T12:00:53.265Z,54.89
2023-12-30T12:03:21.515Z,53.55
2023-12-30T12:05:50.636Z,53.90
2023-12-30T12:08:19.028Z,53.51
2023-12-30T12:10:48.300Z,53.22
2023-12-30T12:13:23.512Z,50.96
2023-12-30T12:15:52.958Z,50.15
2023-12-30T12:18:21.966Z,49.15
2023-12-30T12:20:51.444Z,48.94
2023-12-30T12:23:23.434Z,47.26
2023-12-30T12:25:52.008Z,47.09
2023-12-30T12:28:24.825Z,45.97
2023-12-30T12:30:53.397Z,44.53
2023-12-30T12:33:22.134Z,43.91
2023-12-30T12:35:50.566Z,43.11
2023-12-30T12:38:18.785Z,43.11
2023-12-30T12:40:47.245Z,43.32
2023-12-30T12:43:16.224Z,42.62
2023-12-30T12:45:44.543Z,42.98
2023-12-30T12:48:12.928Z,43.86
2023-12-30T12:50:41.290Z,43.88
2023-12-30T12:53:09.509Z,44.45
2023-12-30T12:55:38.301Z,45.20
2023-12-30T12:58:06.669Z,46.34
2023-12-30T13:00:34.810Z,45.96
2023-12-30T13:03:03.242Z,45.89
2023-12-30T13:05:32.002Z,45.33
2023-12-30T13:08:00.266Z,45.04
2023-12-30T13:10:34.597Z,45.62
2023-12-30T13:13:03.481Z,46.70
2023-12-30T13:15:32.114Z,48.58
2023-12-30T13:18:01.187Z,50.20
2023-12-30T13:20:29.759Z,51.83
2023-12-30T13:22:59.006Z,52.74
2023-12-30T13:25:31.444Z,53.52
2023-12-30T13:28:00.329Z,54.99
2023-12-30T13:30:29.309Z,55.10
2023-12-30T13:32:59.178Z,54.10
2023-12-30T13:35:32.023Z,53.42
2023-12-30T13:38:00.342Z,52.43
2023-12-30T13:40:29.499Z,51.80
2023-12-30T13:43:02.314Z,52.07
2023-12-30T13:45:34.298Z,52.37
2023-12-30T13:48:08.888Z,52.68
2023-12-30T13:51:03.539Z,52.70
2023-12-30T13:53:32.019Z,53.27
2023-12-30T13:56:02.558Z,54.25
2023-12-30T13:58:31.194Z,55.81
2023-12-30T14:01:01.287Z,56.99
2023-12-30T14:03:29.978Z,58.04
2023-12-30T14:05:59.749Z,59.16
2023-12-30T14:08:33.575Z,60.41
2023-12-30T14:11:08.625Z,60.96
2023-12-30T14:13:37.307Z,61.91
2023-12-30T14:16:07.240Z,63.24
2023-12-30T14:18:35.593Z,64.45
2023-12-30T14:21:04.212Z,65.23
2023-12-30T14:23:33.245Z,66.37
2023-12-30T14:26:02.169Z,68.01
2023-12-30T14:28:30.419Z,68.51
2023-12-30T14:30:58.945Z,69.58
2023-12-30T14:33:27.375Z,71.07
2023-12-30T14:35:55.949Z,71.04
2023-12-30T14:38:24.170Z,70.57
2023-12-30T14:40:52.410Z,70.82
2023-12-30T14:43:20.742Z,72.57
2023-12-30T14:45:49.265Z,72.94
2023-12-30T14:48:18.165Z,72.71
2023-12-30T14:50:46.777Z,73.24
2023-12-30T14:53:15.200Z,74.84
2023-12-30T14:55:43.478Z,76.50
2023-12-30T14:58:12.275Z,76.58
2023-12-30T15:00:41.293Z,77.06
2023-12-30T15:03:09.730Z,78.71
2023-12-30T15:05:38.016Z,78.87
2023-12-30T15:08:07.328Z,79.05
2023-12-30T15:10:35.559Z,80.25
2023-12-30T15:13:05.552Z,79.70
2023-12-30T15:15:34.201Z,79.87
2023-12-30T15:18:03.573Z,79.94
2023-12-30T15:20:32.645Z,80.20
2023-12-30T15:23:01.084Z,78.98
2023-12-30T15:25:29.592Z,82.10
2023-12-30T15:27:58.029Z,83.98
2023-12-30T15:30:26.373Z,83.85
2023-12-30T15:32:56.483Z,83.49
2023-12-30T15:35:25.395Z,83.55
2023-12-30T15:37:53.734Z,84.09
2023-12-30T15:40:22.081Z,84.61
2023-12-30T15:42:51.342Z,84.11
2023-12-30T15:45:22.186Z,83.34
2023-12-30T15:47:50.737Z,84.89
2023-12-30T15:50:19.487Z,86.00
2023-12-30T15:52:47.959Z,83.69
2023-12-30T15:55:16.701Z,84.82
2023-12-30T15:57:44.878Z,84.87
2023-12-30T16:00:14.405Z,85.78
2023-12-30T16:02:42.768Z,84.14
2023-12-30T16:05:11.157Z,84.96
2023-12-30T16:07:39.920Z,84.24
2023-12-30T16:10:09.328Z,84.56
2023-12-30T16:12:38.220Z,84.47
2023-12-30T16:15:07.389Z,83.72
2023-12-30T16:17:35.698Z,83.21
2023-12-30T16:20:05.440Z,83.83
2023-12-30T16:22:35.084Z,85.15
2023-12-30T16:25:03.580Z,85.17
2023-12-30T16:27:31.848Z,85.76
2023-12-30T16:30:00.067Z,86.30
2023-12-30T16:32:28.875Z,85.42
2023-12-30T16:34:57.403Z,84.91
2023-12-30T16:37:26.201Z,84.56
2023-12-30T16:39:55.663Z,84.93
2023-12-30T16:42:23.884Z,85.19
2023-12-30T16:44:52.505Z,84.83
2023-12-30T16:47:20.723Z,85.79
2023-12-30T16:49:49.066Z,86.51
2023-12-30T16:52:17.690Z,86.40
2023-12-30T16:54:46.889Z,86.47
2023-12-30T16:57:15.277Z,86.91
2023-12-30T16:59:43.531Z,87.48
2023-12-30T17:02:11.903Z,87.74
2023-12-30T17:04:40.458Z,87.74
2023-12-30T17:07:08.729Z,87.58
2023-12-30T17:09:37.118Z,87.37
2023-12-30T17:12:05.937Z,87.08
2023-12-30T17:14:34.460Z,86.95
2023-12-30T17:17:02.678Z,86.90
2023-12-30T17:19:30.933Z,87.23
2023-12-30T17:21:59.226Z,87.00
2023-12-30T17:24:27.441Z,87.16
2023-12-30T17:26:55.654Z,86.24
2023-12-30T17:29:24.090Z,86.63
2023-12-30T17:31:57.006Z,87.00
2023-12-30T17:34:25.363Z,87.55
2023-12-30T17:36:53.560Z,87.89
2023-12-30T17:39:21.771Z,88.34
2023-12-30T17:41:49.892Z,89.13
2023-12-30T17:44:18.621Z,90.01
2023-12-30T17:46:46.914Z,91.61
2023-12-30T17:49:15.804Z,92.65
2023-12-30T17:51:43.979Z,93.32
2023-12-30T17:54:12.499Z,92.28
2023-12-30T17:56:41.210Z,92.23
2023-12-30T17:59:09.341Z,93.12
2023-12-30T18:01:37.600Z,93.14
2023-12-30T18:04:05.956Z,92.30
2023-12-30T18:06:34.938Z,91.79
2023-12-30T18:09:07.076Z,91.31
2023-12-30T18:11:36.970Z,91.31
2023-12-30T18:14:05.184Z,91.94
2023-12-30T18:16:33.749Z,92.93
2023-12-30T18:19:02.186Z,93.74
2023-12-30T18:21:30.450Z,94.29
2023-12-30T18:23:58.668Z,95.16
2023-12-30T18:26:26.895Z,94.72
2023-12-30T18:28:55.112Z,94.25
2023-12-30T18:31:23.263Z,94.34
2023-12-30T18:33:51.500Z,95.02
2023-12-30T18:36:19.776Z,94.79
2023-12-30T18:38:47.991Z,94.63
2023-12-30T18:41:16.216Z,94.28
2023-12-30T18:43:44.668Z,94.10
2023-12-30T18:46:13.005Z,93.48
2023-12-30T18:48:41.365Z,92.96
2023-12-30T18:51:09.816Z,93.40
2023-12-30T18:53:38.018Z,93.81
2023-12-30T18:56:06.862Z,93.33
2023-12-30T18:58:35.108Z,93.91
2023-12-30T19:01:03.705Z,95.67
2023-12-30T19:03:32.027Z,97.12
2023-12-30T19:06:00.351Z,97.85
2023-12-30T19:08:33.295Z,97.31
2023-12-30T19:11:01.686Z,96.99
2023-12-30T19:13:29.922Z,96.83
2023-12-30T19:15:58.125Z,96.47
2023-12-30T19:18:26.705Z,96.10
2023-12-30T19:20:56.973Z,95.51
2023-12-30T19:23:25.794Z,95.88
2023-12-30T19:25:53.959Z,95.17
2023-12-30T19:28:22.385Z,94.95
2023-12-30T19:30:51.568Z,95.28
2023-12-30T19:33:20.333Z,95.13
2023-12-30T19:35:48.905Z,94.86
2023-12-30T19:38:17.730Z,94.67
2023-12-30T19:40:47.210Z,94.28
2023-12-30T19:43:15.929Z,94.29
2023-12-30T19:45:44.458Z,93.97
2023-12-30T19:48:13.094Z,93.85
2023-12-30T19:50:44.595Z,93.84
2023-12-30T19:53:16.997Z,93.25
2023-12-30T19:55:46.496Z,93.49
2023-12-30T19:58:14.772Z,93.63
2023-12-30T20:00:43.062Z,93.42
2023-12-30T20:03:14.084Z,93.57
2023-12-30T20:05:42.319Z,94.37
2023-12-30T20:08:10.532Z,94.27
2023-12-30T20:10:38.777Z,94.27
2023-12-30T20:13:07.644Z,94.40
2023-12-30T20:15:35.892Z,94.10
2023-12-30T20:18:04.830Z,93.75
2023-12-30T20:20:33.242Z,93.27
2023-12-30T20:23:01.791Z,92.94
2023-12-30T20:25:32.168Z,93.46
2023-12-30T20:28:01.899Z,94.24
2023-12-30T20:30:30.253Z,93.93
2023-12-30T20:32:58.729Z,93.80
2023-12-30T20:35:27.105Z,94.36
2023-12-30T20:37:55.278Z,94.28
2023-12-30T20:40:23.539Z,94.38
2023-12-30T20:42:51.819Z,94.33
2023-12-30T20:45:20.039Z,94.13
2023-12-30T20:47:48.418Z,94.07
2023-12-30T20:50:16.983Z,93.35
2023-12-30T20:52:45.269Z,93.37
2023-12-30T20:55:15.438Z,93.69
2023-12-30T20:57:44.764Z,93.53
2023-12-30T21:00:14.383Z,93.11
2023-12-30T21:02:43.510Z,93.69
2023-12-30T21:05:11.729Z,94.44
2023-12-30T21:07:40.079Z,94.10
2023-12-30T21:10:09.111Z,93.89
2023-12-30T21:12:37.593Z,93.78
2023-12-30T21:15:06.412Z,93.61
2023-12-30T21:17:34.561Z,93.27
2023-12-30T21:20:02.769Z,94.16
2023-12-30T21:22:30.992Z,94.87
2023-12-30T21:25:01.213Z,94.58
2023-12-30T21:27:29.742Z,94.57
2023-12-30T21:29:57.940Z,94.96
2023-12-30T21:32:26.453Z,95.60
2023-12-30T21:34:55.394Z,95.41
2023-12-30T21:37:32.210Z,95.36
2023-12-30T21:40:04.596Z,95.10
2023-12-30T21:42:32.791Z,94.69
2023-12-30T21:45:01.015Z,94.31
2023-12-30T21:47:29.261Z,94.28
2023-12-30T21:49:58.061Z,93.97
2023-12-30T21:52:26.429Z,93.69
2023-12-30T21:54:54.654Z,93.65
2023-12-30T21:57:22.813Z,93.53
2023-12-30T21:59:51.071Z,93.39
2023-12-30T22:02:19.355Z,92.94
2023-12-30T22:04:47.584Z,93.00
2023-12-30T22:07:16.008Z,93.07
2023-12-30T22:09:44.312Z,92.87
2023-12-30T22:12:12.632Z,92.53
2023-12-30T22:14:40.954Z,92.22
2023-12-30T22:17:11.331Z,92.14
2023-12-30T22:19:40.227Z,91.85
2023-12-30T22:22:09.674Z,91.68
2023-12-30T22:24:37.952Z,91.85
2023-12-30T22:27:06.177Z,91.77
2023-12-30T22:29:34.391Z,91.70
2023-12-30T22:32:03.419Z,91.55
2023-12-30T22:34:31.691Z,91.81
2023-12-30T22:36:59.958Z,91.51
2023-12-30T22:39:28.181Z,91.40
2023-12-30T22:41:57.007Z,91.47
2023-12-30T22:44:25.134Z,91.38
2023-12-30T22:46:53.802Z,91.44
2023-12-30T22:49:22.243Z,91.49
2023-12-30T22:51:51.885Z,91.37
2023-12-30T22:54:20.214Z,91.89
2023-12-30T22:56:48.431Z,91.83
2023-12-30T22:59:17.479Z,92.22
2023-12-30T23:01:45.732Z,92.43
2023-12-30T23:04:14.576Z,92.53
2023-12-30T23:06:44.547Z,92.32
2023-12-30T23:09:13.051Z,92.39
2023-12-30T23:11:41.265Z,92.67
2023-12-30T23:14:09.490Z,92.64
2023-12-30T23:16:37.736Z,92.64
2023-12-30T23:19:06.130Z,92.99
2023-12-30T23:21:34.483Z,93.14
2023-12-30T23:24:04.273Z,93.12
2023-12-30T23:26:32.393Z,93.07
2023-12-30T23:29:00.619Z,93.14
2023-12-30T23:31:28.851Z,93.53
2023-12-30T23:33:57.124Z,93.51
2023-12-30T23:36:25.472Z,93.86
2023-12-30T23:38:53.700Z,94.19
2023-12-30T23:41:21.837Z,94.01
2023-12-30T23:43:50.186Z,93.97
2023-12-30T23:46:18.564Z,93.97
2023-12-30T23:48:46.788Z,94.07
2023-12-30T23:51:15.011Z,93.78
2023-12-30T23:53:43.215Z,94.29
2023-12-30T23:56:11.431Z,93.90
2023-12-30T23:58:39.701Z,94.03
